Time;durP1;ratioP1;P1;durP2;ratioP2;P2;SDS_P1;SDS_P2;PMS_P1;PMS_P2;Temp;Humidity;BMP_temperature;BMP_pressure;BME280_temperature;BME280_humidity;BME280_pressure;Samples;Min_cycle;Max_cycle;Signal;HPM_P1;HPM_P2
2024/01/12 00:00:51;0.00;0.00;0.62;0.00;0.00;0.62;3.53;2.57;;;16.70;18.70;;;;;;2256563;61;20454;-57
2024/01/12 00:03:36;0.00;0.00;0.62;0.00;0.00;0.62;4.73;2.87;;;16.70;18.70;;;;;;2255738;61;20365;-57
2024/01/12 00:06:21;0.00;0.00;0.62;0.00;0.00;0.62;5.40;2.90;;;16.70;18.70;;;;;;2256576;61;20413;-55
2024/01/12 00:09:05;0.00;0.00;0.62;0.00;0.00;0.62;3.77;3.10;;;16.70;18.70;;;;;;2256435;61;20441;-55
2024/01/12 00:11:51;0.00;0.00;0.62;0.00;0.00;0.62;3.97;2.57;;;16.70;18.70;;;;;;2255982;61;20824;-56
2024/01/12 00:14:36;0.00;0.00;0.62;0.00;0.00;0.62;4.30;2.73;;;16.70;18.70;;;;;;2256719;61;20913;-52
2024/01/12 00:17:20;0.00;0.00;0.62;0.00;0.00;0.62;4.10;2.90;;;16.70;18.70;;;;;;2256158;61;20850;-55
2024/01/12 00:20:07;0.00;0.00;0.62;0.00;0.00;0.62;3.40;2.50;;;16.70;18.70;;;;;;2256591;61;20361;-55
2024/01/12 00:22:55;0.00;0.00;0.62;0.00;0.00;0.62;5.00;2.60;;;16.70;18.70;;;;;;2256199;61;20867;-57
2024/01/12 00:25:41;0.00;0.00;0.62;0.00;0.00;0.62;3.80;3.13;;;16.70;18.70;;;;;;2256022;61;20374;-52
2024/01/12 00:28:28;0.00;0.00;0.62;0.00;0.00;0.62;3.27;2.83;;;16.70;18.70;;;;;;2256499;61;20362;-57
2024/01/12 00:31:12;0.00;0.00;0.62;0.00;0.00;0.62;4.27;2.83;;;16.70;18.70;;;;;;2256381;61;20922;-55
2024/01/12 00:33:57;0.00;0.00;0.62;0.00;0.00;0.62;3.03;2.60;;;16.70;18.80;;;;;;2256370;61;20417;-55
2024/01/12 00:36:42;0.00;0.00;0.62;0.00;0.00;0.62;3.70;2.47;;;16.70;18.80;;;;;;2256307;61;20405;-56
2024/01/12 00:39:26;0.00;0.00;0.62;0.00;0.00;0.62;3.93;2.73;;;16.70;18.80;;;;;;2256407;61;20381;-57
2024/01/12 00:42:11;0.00;0.00;0.62;0.00;0.00;0.62;3.50;2.43;;;16.70;18.80;;;;;;2255688;61;20436;-53
2024/01/12 00:44:56;0.00;0.00;0.62;0.00;0.00;0.62;4.10;2.73;;;16.70;18.80;;;;;;2256458;61;20374;-53
2024/01/12 00:47:42;0.00;0.00;0.62;0.00;0.00;0.62;4.40;2.57;;;16.70;18.70;;;;;;2256119;61;20389;-53
2024/01/12 00:50:27;0.00;0.00;0.62;0.00;0.00;0.62;3.73;2.87;;;16.70;18.70;;;;;;2256438;61;20441;-56
2024/01/12 00:53:11;0.00;0.00;0.62;0.00;0.00;0.62;3.10;2.57;;;16.70;18.80;;;;;;2256061;61;20369;-55
2024/01/12 00:55:56;0.00;0.00;0.62;0.00;0.00;0.62;3.20;2.20;;;16.80;18.80;;;;;;2255943;61;20444;-55
2024/01/12 00:58:40;0.00;0.00;0.62;0.00;0.00;0.62;4.73;2.83;;;16.70;18.80;;;;;;2256272;61;20420;-51
2024/01/12 01:01:26;0.00;0.00;0.62;0.00;0.00;0.62;3.43;2.33;;;16.70;18.80;;;;;;2256422;61;20470;-59
2024/01/12 01:04:11;0.00;0.00;0.62;0.00;0.00;0.62;3.57;2.60;;;16.70;18.80;;;;;;2256222;61;20365;-52
2024/01/12 01:06:55;0.00;0.00;0.62;0.00;0.00;0.62;3.57;2.67;;;16.70;18.80;;;;;;2256306;61;20385;-57
2024/01/12 01:09:40;0.00;0.00;0.62;0.00;0.00;0.62;3.20;2.40;;;16.80;18.80;;;;;;2256082;61;20366;-53
2024/01/12 01:12:25;0.00;0.00;0.62;0.00;0.00;0.62;4.40;3.23;;;16.70;18.80;;;;;;2256145;61;20807;-56
2024/01/12 01:15:13;0.00;0.00;0.62;0.00;0.00;0.62;4.50;2.63;;;16.80;18.80;;;;;;2256234;61;20366;-56
2024/01/12 01:17:59;0.00;0.00;0.62;0.00;0.00;0.62;4.80;3.10;;;16.70;18.80;;;;;;2255701;61;20815;-52
2024/01/12 01:20:43;0.00;0.00;0.62;0.00;0.00;0.62;3.40;2.43;;;16.80;18.90;;;;;;2256339;61;20378;-56
2024/01/12 01:23:28;0.00;0.00;0.62;0.00;0.00;0.62;3.70;2.77;;;16.80;18.80;;;;;;2256166;61;20369;-55
2024/01/12 01:26:13;0.00;0.00;0.62;0.00;0.00;0.62;3.50;2.13;;;16.80;18.80;;;;;;2253324;61;20361;-54
2024/01/12 01:28:57;0.00;0.00;0.62;0.00;0.00;0.62;4.03;2.70;;;16.80;18.90;;;;;;2256279;61;20413;-54
2024/01/12 01:31:42;0.00;0.00;0.62;0.00;0.00;0.62;3.80;3.00;;;16.80;18.90;;;;;;2255636;61;20424;-54
2024/01/12 01:34:28;0.00;0.00;0.62;0.00;0.00;0.62;4.10;2.73;;;16.80;18.90;;;;;;2256077;61;20373;-54
2024/01/12 01:37:13;0.00;0.00;0.62;0.00;0.00;0.62;3.00;2.13;;;16.80;18.90;;;;;;2256121;61;20393;-56
2024/01/12 01:39:57;0.00;0.00;0.62;0.00;0.00;0.62;4.60;2.57;;;16.80;18.90;;;;;;2256052;61;20785;-55
2024/01/12 01:42:42;0.00;0.00;0.62;0.00;0.00;0.62;3.30;2.27;;;16.80;18.90;;;;;;2255909;61;20386;-56
2024/01/12 01:45:27;0.00;0.00;0.62;0.00;0.00;0.62;4.70;2.17;;;16.70;18.80;;;;;;2256315;61;20373;-54
2024/01/12 01:48:12;0.00;0.00;0.62;0.00;0.00;0.62;3.33;2.60;;;16.80;18.90;;;;;;2256116;61;20420;-56
2024/01/12 01:50:58;0.00;0.00;0.62;0.00;0.00;0.62;2.70;2.20;;;16.80;18.90;;;;;;2256329;61;20389;-57
2024/01/12 01:53:43;0.00;0.00;0.62;0.00;0.00;0.62;2.83;2.23;;;16.80;18.90;;;;;;2255442;61;20401;-57
2024/01/12 01:56:29;0.00;0.00;0.62;0.00;0.00;0.62;3.20;2.57;;;16.80;18.90;;;;;;2256162;61;20393;-54
2024/01/12 01:59:15;0.00;0.00;0.62;0.00;0.00;0.62;3.60;2.20;;;16.80;18.90;;;;;;2256315;61;20370;-58
2024/01/12 02:02:00;0.00;0.00;0.62;0.00;0.00;0.62;2.97;2.23;;;16.80;18.90;;;;;;2255444;61;20787;-58
2024/01/12 02:04:44;0.00;0.00;0.62;0.00;0.00;0.62;3.40;2.30;;;16.80;18.90;;;;;;2256593;61;20405;-55
2024/01/12 02:07:30;0.00;0.00;0.62;0.00;0.00;0.62;3.13;2.17;;;16.80;18.90;;;;;;2257037;61;20437;-56
2024/01/12 02:10:15;0.00;0.00;0.62;0.00;0.00;0.62;3.13;2.43;;;16.80;18.90;;;;;;2256515;61;20374;-56
2024/01/12 02:13:00;0.00;0.00;0.62;0.00;0.00;0.62;3.73;2.77;;;16.80;18.90;;;;;;2256591;61;20791;-59
2024/01/12 02:15:44;0.00;0.00;0.62;0.00;0.00;0.62;3.53;2.30;;;16.80;18.90;;;;;;2256197;61;20913;-59
2024/01/12 02:18:29;0.00;0.00;0.62;0.00;0.00;0.62;2.90;2.30;;;16.80;18.90;;;;;;2256836;61;20783;-56
2024/01/12 02:21:15;0.00;0.00;0.62;0.00;0.00;0.62;3.53;2.40;;;16.80;18.90;;;;;;2268203;58;20425;-59
2024/01/12 02:23:59;0.00;0.00;0.62;0.00;0.00;0.62;3.60;2.30;;;16.80;18.90;;;;;;2254628;61;20910;-57
2024/01/12 02:26:44;0.00;0.00;0.62;0.00;0.00;0.62;2.47;1.90;;;16.80;18.90;;;;;;2256825;61;20381;-57
2024/01/12 02:29:28;0.00;0.00;0.62;0.00;0.00;0.62;3.03;2.10;;;16.80;18.90;;;;;;2256824;61;20361;-59
2024/01/12 02:32:13;0.00;0.00;0.62;0.00;0.00;0.62;3.20;1.90;;;16.80;18.90;;;;;;2408731;53;20990;-57
2024/01/12 02:34:57;0.00;0.00;0.62;0.00;0.00;0.62;3.43;2.20;;;16.80;18.90;;;;;;2256718;61;20891;-57
2024/01/12 02:37:44;0.00;0.00;0.62;0.00;0.00;0.62;4.10;2.50;;;16.80;18.90;;;;;;2256608;61;20362;-57
2024/01/12 02:40:28;0.00;0.00;0.62;0.00;0.00;0.62;2.60;2.10;;;16.80;18.90;;;;;;2256916;61;20520;-58
2024/01/12 02:43:13;0.00;0.00;0.62;0.00;0.00;0.62;3.13;2.03;;;16.80;18.90;;;;;;2256324;61;20369;-54
2024/01/12 02:45:57;0.00;0.00;0.62;0.00;0.00;0.62;3.37;2.60;;;16.80;18.90;;;;;;2256333;61;20385;-58
2024/01/12 02:48:42;0.00;0.00;0.62;0.00;0.00;0.62;3.60;2.20;;;16.80;18.90;;;;;;2256801;61;20416;-55
2024/01/12 02:51:26;0.00;0.00;0.62;0.00;0.00;0.62;3.60;2.00;;;16.80;18.90;;;;;;2256757;61;20413;-59
2024/01/12 02:54:12;0.00;0.00;0.62;0.00;0.00;0.62;2.67;2.13;;;16.80;18.90;;;;;;2256246;61;20381;-56
2024/01/12 02:56:56;0.00;0.00;0.62;0.00;0.00;0.62;3.40;2.43;;;16.80;18.90;;;;;;2256647;61;20923;-57
2024/01/12 02:59:41;0.00;0.00;0.62;0.00;0.00;0.62;2.57;2.07;;;16.80;18.90;;;;;;2257119;61;20784;-55
2024/01/12 03:02:26;0.00;0.00;0.62;0.00;0.00;0.62;3.03;2.03;;;16.80;18.90;;;;;;2256224;61;20930;-56
2024/01/12 03:05:11;0.00;0.00;0.62;0.00;0.00;0.62;2.93;1.90;;;16.90;19.00;;;;;;2256718;61;20393;-56
2024/01/12 03:07:56;0.00;0.00;0.62;0.00;0.00;0.62;3.10;2.10;;;16.90;19.00;;;;;;2255873;61;20712;-55
2024/01/12 03:10:42;0.00;0.00;0.62;0.00;0.00;0.62;2.67;2.17;;;16.90;19.00;;;;;;2251996;61;20367;-56
2024/01/12 03:13:26;0.00;0.00;0.62;0.00;0.00;0.62;2.83;2.10;;;16.80;18.90;;;;;;2252449;61;20375;-57
2024/01/12 03:16:19;0.00;0.00;0.62;0.00;0.00;0.62;3.53;2.30;;;16.90;19.00;;;;;;2252083;61;20463;-58
2024/01/12 03:19:03;0.00;0.00;0.62;0.00;0.00;0.62;3.33;2.53;;;16.90;19.00;;;;;;2252788;61;20370;-55
2024/01/12 03:21:48;0.00;0.00;0.62;0.00;0.00;0.62;2.83;1.87;;;16.90;19.00;;;;;;2252129;61;20426;-57
2024/01/12 03:24:32;0.00;0.00;0.62;0.00;0.00;0.62;2.83;1.87;;;16.90;19.00;;;;;;2252469;61;20418;-57
2024/01/12 03:27:18;0.00;0.00;0.62;0.00;0.00;0.62;2.60;1.77;;;16.90;19.00;;;;;;2252442;61;20399;-58
2024/01/12 03:30:04;0.00;0.00;0.62;0.00;0.00;0.62;2.87;1.83;;;16.90;19.00;;;;;;2252311;61;20900;-57
2024/01/12 03:32:48;0.00;0.00;0.62;0.00;0.00;0.62;2.70;2.23;;;16.90;19.00;;;;;;2252277;61;20434;-53
2024/01/12 03:35:34;0.00;0.00;0.62;0.00;0.00;0.62;2.83;1.93;;;16.80;18.90;;;;;;2252639;61;20382;-55
2024/01/12 03:38:19;0.00;0.00;0.62;0.00;0.00;0.62;3.20;2.40;;;16.90;19.00;;;;;;2251767;61;20852;-55
2024/01/12 03:41:05;0.00;0.00;0.62;0.00;0.00;0.62;4.40;2.30;;;16.90;19.00;;;;;;2252428;61;20471;-53
2024/01/12 03:43:52;0.00;0.00;0.62;0.00;0.00;0.62;3.20;2.23;;;16.90;19.00;;;;;;2252210;61;20359;-59
2024/01/12 03:46:36;0.00;0.00;0.62;0.00;0.00;0.62;3.23;2.47;;;16.90;19.00;;;;;;2252090;61;20378;-57
2024/01/12 03:49:22;0.00;0.00;0.62;0.00;0.00;0.62;3.13;2.17;;;16.90;19.00;;;;;;2252411;61;20860;-55
2024/01/12 03:52:06;0.00;0.00;0.62;0.00;0.00;0.62;2.80;1.93;;;16.90;19.00;;;;;;2251707;61;20381;-59
2024/01/12 03:54:51;0.00;0.00;0.62;0.00;0.00;0.62;3.77;2.87;;;16.90;19.00;;;;;;2254494;61;20926;-55
2024/01/12 03:57:35;0.00;0.00;0.62;0.00;0.00;0.62;2.87;2.03;;;16.90;19.00;;;;;;2256218;61;20456;-59
2024/01/12 04:00:21;0.00;0.00;0.62;0.00;0.00;0.62;3.10;1.97;;;16.90;19.00;;;;;;2256296;61;20373;-53
2024/01/12 04:03:06;0.00;0.00;0.62;0.00;0.00;0.62;2.90;2.07;;;16.90;19.50;;;;;;2255987;61;20390;-55
2024/01/12 04:05:51;0.00;0.00;0.62;0.00;0.00;0.62;2.80;2.07;;;16.90;19.00;;;;;;2256078;61;20458;-59
2024/01/12 04:08:36;0.00;0.00;0.62;0.00;0.00;0.62;2.80;2.43;;;16.90;19.50;;;;;;2256440;61;20369;-53
2024/01/12 04:11:22;0.00;0.00;0.62;0.00;0.00;0.62;3.17;2.37;;;16.90;19.00;;;;;;2256479;61;20474;-53
2024/01/12 04:14:06;0.00;0.00;0.62;0.00;0.00;0.62;3.30;1.90;;;16.90;19.00;;;;;;2256197;61;20409;-55
2024/01/12 04:16:52;0.00;0.00;0.62;0.00;0.00;0.62;2.87;1.93;;;16.90;19.00;;;;;;2256480;61;20394;-57
2024/01/12 04:19:37;0.00;0.00;0.62;0.00;0.00;0.62;3.20;2.27;;;16.90;19.00;;;;;;2256570;61;20412;-58
2024/01/12 04:22:21;0.00;0.00;0.62;0.00;0.00;0.62;3.13;2.30;;;16.90;19.00;;;;;;2255289;61;20424;-58
2024/01/12 04:25:07;0.00;0.00;0.62;0.00;0.00;0.62;2.60;1.83;;;16.90;19.30;;;;;;2256301;61;20361;-59
2024/01/12 04:27:52;0.00;0.00;0.62;0.00;0.00;0.62;2.67;1.97;;;16.90;19.00;;;;;;2256387;61;20361;-55
2024/01/12 04:30:36;0.00;0.00;0.62;0.00;0.00;0.62;2.50;1.70;;;16.90;19.00;;;;;;2256340;61;20366;-57
2024/01/12 04:33:22;0.00;0.00;0.62;0.00;0.00;0.62;3.20;1.80;;;16.90;19.00;;;;;;2255716;61;20416;-57
2024/01/12 04:36:07;0.00;0.00;0.62;0.00;0.00;0.62;5.27;2.23;;;16.90;19.00;;;;;;2256049;61;20386;-55
2024/01/12 04:38:52;0.00;0.00;0.62;0.00;0.00;0.62;2.50;1.77;;;16.90;19.00;;;;;;2256300;61;20412;-57
2024/01/12 04:41:37;0.00;0.00;0.62;0.00;0.00;0.62;2.77;1.80;;;16.90;19.00;;;;;;2256126;61;20382;-60
2024/01/12 04:44:22;0.00;0.00;0.62;0.00;0.00;0.62;2.87;2.00;;;16.90;19.00;;;;;;2256143;61;20903;-59
2024/01/12 04:47:06;0.00;0.00;0.62;0.00;0.00;0.62;2.20;1.60;;;16.90;19.00;;;;;;2256262;61;20377;-60
2024/01/12 04:49:52;0.00;0.00;0.62;0.00;0.00;0.62;2.20;1.63;;;16.90;19.00;;;;;;2256494;61;20424;-59
2024/01/12 04:52:36;0.00;0.00;0.62;0.00;0.00;0.62;3.47;2.03;;;16.90;19.00;;;;;;2255690;61;20397;-54
2024/01/12 04:55:21;0.00;0.00;0.62;0.00;0.00;0.62;3.43;2.30;;;16.90;19.00;;;;;;2256258;61;20412;-54
2024/01/12 04:58:06;0.00;0.00;0.62;0.00;0.00;0.62;2.37;2.00;;;17.00;19.10;;;;;;2256383;61;20358;-53
2024/01/12 05:00:50;0.00;0.00;0.62;0.00;0.00;0.62;3.77;2.43;;;16.90;19.00;;;;;;2256234;61;20886;-55
2024/01/12 05:03:35;0.00;0.00;0.62;0.00;0.00;0.62;2.80;1.80;;;16.90;19.00;;;;;;2256008;61;20885;-55
2024/01/12 05:06:21;0.00;0.00;0.62;0.00;0.00;0.62;3.17;2.03;;;17.00;19.10;;;;;;2255972;61;20404;-53
2024/01/12 05:09:06;0.00;0.00;0.62;0.00;0.00;0.62;3.13;1.87;;;16.90;19.00;;;;;;2256398;61;20656;-51
2024/01/12 05:11:51;0.00;0.00;0.62;0.00;0.00;0.62;3.00;2.27;;;17.00;19.10;;;;;;2255849;61;20378;-55
2024/01/12 05:14:36;0.00;0.00;0.62;0.00;0.00;0.62;2.30;1.73;;;16.90;19.10;;;;;;2256113;61;20397;-56
2024/01/12 05:17:22;0.00;0.00;0.62;0.00;0.00;0.62;2.77;2.00;;;17.00;19.10;;;;;;2256303;61;20441;-56
2024/01/12 05:20:08;0.00;0.00;0.62;0.00;0.00;0.62;2.47;2.00;;;16.90;19.10;;;;;;2256489;61;20475;-54
2024/01/12 05:22:54;0.00;0.00;0.62;0.00;0.00;0.62;2.13;1.53;;;17.00;19.10;;;;;;2256007;61;20914;-55
2024/01/12 05:25:39;0.00;0.00;0.62;0.00;0.00;0.62;3.93;2.20;;;17.00;19.10;;;;;;2256509;61;20994;-52
2024/01/12 05:28:23;0.00;0.00;0.62;0.00;0.00;0.62;2.80;2.37;;;17.00;19.10;;;;;;2255904;61;20379;-53
2024/01/12 05:31:09;0.00;0.00;0.62;0.00;0.00;0.62;2.83;1.50;;;17.00;19.10;;;;;;2256433;61;20394;-56
2024/01/12 05:33:56;0.00;0.00;0.62;0.00;0.00;0.62;2.83;2.00;;;17.00;19.10;;;;;;2255952;61;20415;-58
2024/01/12 05:36:40;0.00;0.00;0.62;0.00;0.00;0.62;2.27;1.80;;;17.00;19.10;;;;;;2255991;61;20804;-57
2024/01/12 05:39:27;0.00;0.00;0.62;0.00;0.00;0.62;2.27;1.70;;;17.00;19.10;;;;;;2256389;61;20504;-58
2024/01/12 05:42:12;0.00;0.00;0.62;0.00;0.00;0.62;2.40;1.73;;;17.00;19.10;;;;;;2256702;61;20937;-55
2024/01/12 05:44:56;0.00;0.00;0.62;0.00;0.00;0.62;2.30;1.63;;;17.00;19.10;;;;;;2256571;61;20389;-54
2024/01/12 05:47:41;0.00;0.00;0.62;0.00;0.00;0.62;2.73;1.83;;;17.00;19.10;;;;;;2257014;61;20448;-56
2024/01/12 05:50:25;0.00;0.00;0.62;0.00;0.00;0.62;2.80;1.83;;;17.00;19.10;;;;;;2256720;61;20373;-57
2024/01/12 05:53:10;0.00;0.00;0.62;0.00;0.00;0.62;2.83;1.93;;;17.00;19.20;;;;;;2256589;61;20432;-55
2024/01/12 05:55:56;0.00;0.00;0.62;0.00;0.00;0.62;2.53;1.80;;;17.00;19.10;;;;;;2257054;61;20797;-57
2024/01/12 05:58:40;0.00;0.00;0.62;0.00;0.00;0.62;2.67;1.70;;;17.00;19.10;;;;;;2256063;61;20370;-59
2024/01/12 06:01:25;0.00;0.00;0.62;0.00;0.00;0.62;2.70;1.97;;;17.00;19.10;;;;;;2256275;61;20421;-56
2024/01/12 06:04:09;0.00;0.00;0.62;0.00;0.00;0.62;3.13;2.00;;;17.00;19.10;;;;;;2257026;61;20389;-62
2024/01/12 06:06:54;0.00;0.00;0.62;0.00;0.00;0.62;2.97;1.80;;;17.00;19.10;;;;;;2256518;61;20397;-55
2024/01/12 06:09:39;0.00;0.00;0.62;0.00;0.00;0.62;4.47;2.20;;;17.00;19.10;;;;;;2257026;61;20424;-56
2024/01/12 06:12:25;0.00;0.00;0.62;0.00;0.00;0.62;3.80;2.23;;;17.00;19.10;;;;;;2256168;61;20396;-57
2024/01/12 06:15:10;0.00;0.00;0.62;0.00;0.00;0.62;2.73;1.90;;;17.00;19.10;;;;;;2256799;61;20858;-58
2024/01/12 06:17:57;0.00;0.00;0.62;0.00;0.00;0.62;2.87;2.00;;;17.00;19.10;;;;;;2256935;61;20765;-57
2024/01/12 06:20:42;0.00;0.00;0.62;0.00;0.00;0.62;1.93;1.53;;;17.00;19.10;;;;;;2256446;61;20460;-53
2024/01/12 06:23:27;0.00;0.00;0.62;0.00;0.00;0.62;2.10;1.60;;;17.00;19.10;;;;;;2256435;61;20413;-54
2024/01/12 06:26:11;0.00;0.00;0.62;0.00;0.00;0.62;2.87;1.70;;;17.00;19.10;;;;;;2256934;61;20391;-54
2024/01/12 06:28:58;0.00;0.00;0.62;0.00;0.00;0.62;2.80;2.10;;;17.00;19.10;;;;;;2256419;61;20762;-56
2024/01/12 06:31:42;0.00;0.00;0.62;0.00;0.00;0.62;2.20;1.40;;;17.00;19.10;;;;;;2256379;61;20851;-54
2024/01/12 06:34:27;0.00;0.00;0.62;0.00;0.00;0.62;2.77;1.97;;;17.00;19.10;;;;;;2256509;61;20772;-54
2024/01/12 06:37:11;0.00;0.00;0.62;0.00;0.00;0.62;2.77;1.87;;;17.00;19.10;;;;;;2256637;61;20473;-59
2024/01/12 06:39:58;0.00;0.00;0.62;0.00;0.00;0.62;2.60;1.67;;;17.00;19.10;;;;;;2256518;61;20449;-58
2024/01/12 06:42:43;0.00;0.00;0.62;0.00;0.00;0.62;2.73;1.87;;;17.00;19.10;;;;;;2255905;61;20444;-55
2024/01/12 06:45:29;0.00;0.00;0.62;0.00;0.00;0.62;5.17;2.23;;;17.00;19.10;;;;;;2256910;61;20366;-57
2024/01/12 06:48:13;0.00;0.00;0.62;0.00;0.00;0.62;2.63;1.97;;;17.00;19.20;;;;;;2256685;61;20419;-57
2024/01/12 06:50:58;0.00;0.00;0.62;0.00;0.00;0.62;2.40;1.70;;;17.00;19.20;;;;;;2255554;61;20489;-55
2024/01/12 06:53:42;0.00;0.00;0.62;0.00;0.00;0.62;3.03;1.70;;;17.00;19.20;;;;;;2256281;61;20562;-57
2024/01/12 06:56:27;0.00;0.00;0.62;0.00;0.00;0.62;2.50;1.80;;;17.00;19.20;;;;;;2256652;61;20413;-58
2024/01/12 06:59:12;0.00;0.00;0.62;0.00;0.00;0.62;3.40;2.00;;;17.00;19.20;;;;;;2256562;61;20413;-56
2024/01/12 07:01:57;0.00;0.00;0.62;0.00;0.00;0.62;2.60;1.90;;;17.00;19.20;;;;;;2256415;61;20389;-56
2024/01/12 07:04:42;0.00;0.00;0.62;0.00;0.00;0.62;3.70;2.40;;;17.00;19.20;;;;;;2256432;61;20501;-57
2024/01/12 07:07:27;0.00;0.00;0.62;0.00;0.00;0.62;3.13;2.30;;;17.00;19.20;;;;;;2256657;61;20366;-59
2024/01/12 07:10:11;0.00;0.00;0.62;0.00;0.00;0.62;3.77;2.83;;;17.00;19.20;;;;;;2256755;61;20416;-57
2024/01/12 07:12:56;0.00;0.00;0.62;0.00;0.00;0.62;2.80;1.70;;;17.00;19.20;;;;;;2255776;61;20382;-56
2024/01/12 07:15:40;0.00;0.00;0.62;0.00;0.00;0.62;3.97;2.13;;;17.00;19.20;;;;;;2256563;61;20362;-58
2024/01/12 07:18:26;0.00;0.00;0.62;0.00;0.00;0.62;2.43;1.80;;;17.00;19.20;;;;;;2256597;61;20382;-55
2024/01/12 07:21:11;0.00;0.00;0.62;0.00;0.00;0.62;3.40;2.70;;;17.00;19.20;;;;;;2256314;61;20464;-56
2024/01/12 07:23:56;0.00;0.00;0.62;0.00;0.00;0.62;2.67;1.70;;;17.00;19.20;;;;;;2256248;61;20453;-58
2024/01/12 07:26:41;0.00;0.00;0.62;0.00;0.00;0.62;2.70;1.60;;;17.00;19.70;;;;;;2256260;61;20365;-58
2024/01/12 07:29:25;0.00;0.00;0.62;0.00;0.00;0.62;2.73;2.00;;;17.00;19.20;;;;;;2256664;61;20357;-54
2024/01/12 07:32:10;0.00;0.00;0.62;0.00;0.00;0.62;3.43;1.90;;;17.00;19.30;;;;;;2256379;61;20437;-58
2024/01/12 07:34:56;0.00;0.00;0.62;0.00;0.00;0.62;2.70;1.83;;;17.00;19.20;;;;;;2256442;61;20365;-57
2024/01/12 07:37:41;0.00;0.00;0.62;0.00;0.00;0.62;2.60;1.70;;;17.00;19.20;;;;;;2256509;61;20425;-57
2024/01/12 07:40:25;0.00;0.00;0.62;0.00;0.00;0.62;3.10;1.77;;;17.00;19.20;;;;;;2256238;61;20389;-57
2024/01/12 07:43:10;0.00;0.00;0.62;0.00;0.00;0.62;2.90;2.03;;;17.00;19.20;;;;;;2256117;61;20505;-54
2024/01/12 07:45:55;0.00;0.00;0.62;0.00;0.00;0.62;2.50;1.77;;;17.10;19.30;;;;;;2256575;61;20929;-54
2024/01/12 07:48:39;0.00;0.00;0.62;0.00;0.00;0.62;2.60;2.00;;;17.10;19.30;;;;;;2256358;61;20393;-54
2024/01/12 07:51:25;0.00;0.00;0.62;0.00;0.00;0.62;2.40;1.57;;;17.00;19.20;;;;;;2256590;61;20420;-56
2024/01/12 07:54:10;0.00;0.00;0.62;0.00;0.00;0.62;2.67;1.77;;;17.00;19.20;;;;;;2256716;61;20417;-54
2024/01/12 07:56:55;0.00;0.00;0.62;0.00;0.00;0.62;2.60;1.80;;;17.00;19.20;;;;;;2255903;61;20929;-57
2024/01/12 07:59:39;0.00;0.00;0.62;0.00;0.00;0.62;2.50;1.63;;;17.00;19.20;;;;;;2256468;61;20373;-59
2024/01/12 08:02:24;0.00;0.00;0.62;0.00;0.00;0.62;2.77;1.80;;;17.00;19.20;;;;;;2255432;61;20933;-59
2024/01/12 08:05:09;0.00;0.00;0.62;0.00;0.00;0.62;3.43;2.60;;;17.10;19.30;;;;;;2256279;61;20374;-59
2024/01/12 08:07:55;0.00;0.00;0.62;0.00;0.00;0.62;3.03;2.13;;;17.00;19.20;;;;;;2256421;61;20364;-59
2024/01/12 08:10:39;0.00;0.00;0.62;0.00;0.00;0.62;3.20;2.20;;;17.10;19.30;;;;;;2256361;61;20370;-60
2024/01/12 08:13:24;0.00;0.00;0.62;0.00;0.00;0.62;2.40;1.80;;;17.10;19.30;;;;;;2255986;61;20369;-54
2024/01/12 08:16:08;0.00;0.00;0.62;0.00;0.00;0.62;2.73;1.90;;;17.10;19.30;;;;;;2502537;53;20378;-55
2024/01/12 08:18:53;0.00;0.00;0.62;0.00;0.00;0.62;3.20;1.87;;;17.10;19.30;;;;;;2255996;61;20400;-56
2024/01/12 08:21:38;0.00;0.00;0.62;0.00;0.00;0.62;2.17;1.50;;;17.10;19.30;;;;;;2256068;61;20384;-57
2024/01/12 08:24:23;0.00;0.00;0.62;0.00;0.00;0.62;3.53;1.93;;;17.10;19.30;;;;;;2256254;61;20878;-57
2024/01/12 08:27:08;0.00;0.00;0.62;0.00;0.00;0.62;2.87;2.43;;;17.10;19.30;;;;;;2256111;61;20366;-56
2024/01/12 08:29:53;0.00;0.00;0.62;0.00;0.00;0.62;3.70;2.63;;;17.10;19.30;;;;;;2256217;61;20462;-60
2024/01/12 08:32:38;0.00;0.00;0.62;0.00;0.00;0.62;2.77;1.90;;;17.10;19.30;;;;;;2256139;61;20458;-57
2024/01/12 08:35:22;0.00;0.00;0.62;0.00;0.00;0.62;2.40;1.60;;;17.10;19.30;;;;;;2256330;61;20371;-62
2024/01/12 08:38:07;0.00;0.00;0.62;0.00;0.00;0.62;2.30;1.80;;;17.10;19.30;;;;;;2256453;61;20413;-56
2024/01/12 08:40:53;0.00;0.00;0.62;0.00;0.00;0.62;3.47;2.03;;;17.10;19.30;;;;;;2255999;61;20378;-57
2024/01/12 08:43:37;0.00;0.00;0.62;0.00;0.00;0.62;2.07;1.40;;;17.10;19.30;;;;;;2256236;61;20378;-57
2024/01/12 08:46:23;0.00;0.00;0.62;0.00;0.00;0.62;2.10;1.67;;;17.10;19.90;;;;;;2256527;61;20361;-58
2024/01/12 08:49:08;0.00;0.00;0.62;0.00;0.00;0.62;2.10;1.50;;;17.10;19.30;;;;;;2256071;61;20404;-57
2024/01/12 08:51:53;0.00;0.00;0.62;0.00;0.00;0.62;3.00;1.90;;;17.10;19.30;;;;;;2255914;61;20402;-56
2024/01/12 08:54:37;0.00;0.00;0.62;0.00;0.00;0.62;3.47;2.10;;;17.10;19.30;;;;;;2256403;61;20385;-57
2024/01/12 08:57:23;0.00;0.00;0.62;0.00;0.00;0.62;2.40;1.60;;;17.10;19.30;;;;;;2256234;61;20401;-57
2024/01/12 09:00:10;0.00;0.00;0.62;0.00;0.00;0.62;2.03;1.47;;;17.10;19.30;;;;;;2256442;61;20799;-55
2024/01/12 09:02:55;0.00;0.00;0.62;0.00;0.00;0.62;2.50;1.67;;;17.10;19.30;;;;;;2255349;61;20421;-57
2024/01/12 09:05:39;0.00;0.00;0.62;0.00;0.00;0.62;2.73;1.83;;;17.10;19.30;;;;;;2255910;61;20393;-58
2024/01/12 09:08:24;0.00;0.00;0.62;0.00;0.00;0.62;2.80;2.00;;;17.10;19.30;;;;;;2256464;61;21415;-52
2024/01/12 09:11:19;0.00;0.00;0.62;0.00;0.00;0.62;2.07;1.60;;;17.10;19.30;;;;;;2263370;40;21038;-55
2024/01/12 09:14:05;0.00;0.00;0.62;0.00;0.00;0.62;2.53;1.67;;;17.10;19.30;;;;;;2257234;61;20386;-55
2024/01/12 09:16:49;0.00;0.00;0.62;0.00;0.00;0.62;2.50;1.60;;;17.10;19.30;;;;;;2255898;61;20532;-58
2024/01/12 09:19:35;0.00;0.00;0.62;0.00;0.00;0.62;2.63;1.73;;;17.10;19.30;;;;;;2255852;61;20354;-55
2024/01/12 09:22:20;0.00;0.00;0.62;0.00;0.00;0.62;2.43;1.67;;;17.10;19.90;;;;;;2252855;61;20390;-59
2024/01/12 09:25:05;0.00;0.00;0.62;0.00;0.00;0.62;2.93;2.10;;;17.10;19.30;;;;;;2251521;61;20362;-58
2024/01/12 09:27:52;0.00;0.00;0.62;0.00;0.00;0.62;2.20;1.50;;;17.10;19.30;;;;;;2251899;61;20362;-55
2024/01/12 09:30:39;0.00;0.00;0.62;0.00;0.00;0.62;2.73;2.00;;;17.10;19.90;;;;;;2252024;61;20367;-58
2024/01/12 09:33:23;0.00;0.00;0.62;0.00;0.00;0.62;2.20;1.53;;;17.10;19.30;;;;;;2251270;61;20371;-58
2024/01/12 09:36:08;0.00;0.00;0.62;0.00;0.00;0.62;2.23;1.80;;;17.10;19.30;;;;;;2252023;61;20796;-57
2024/01/12 09:38:54;0.00;0.00;0.62;0.00;0.00;0.62;2.47;1.83;;;17.10;19.30;;;;;;2252049;61;20351;-56
2024/01/12 09:41:45;0.00;0.00;0.62;0.00;0.00;0.62;2.43;2.10;;;17.10;19.30;;;;;;2251286;61;20410;-57
2024/01/12 09:44:36;0.00;0.00;0.62;0.00;0.00;0.62;2.20;1.60;;;17.10;19.30;;;;;;2251875;61;20366;-57
2024/01/12 09:47:22;0.00;0.00;0.62;0.00;0.00;0.62;2.30;2.03;;;17.10;19.40;;;;;;2251489;61;20359;-56
2024/01/12 09:50:09;0.00;0.00;0.62;0.00;0.00;0.62;4.60;1.90;;;17.10;19.30;;;;;;2251868;61;20977;-59
2024/01/12 09:52:54;0.00;0.00;0.62;0.00;0.00;0.62;3.20;1.93;;;17.10;19.30;;;;;;2251111;61;20719;-57
2024/01/12 09:55:38;0.00;0.00;0.62;0.00;0.00;0.62;2.80;1.70;;;17.10;19.40;;;;;;2251522;61;20581;-56
2024/01/12 09:58:24;0.00;0.00;0.62;0.00;0.00;0.62;2.97;1.67;;;17.10;19.30;;;;;;2251377;61;20363;-55
2024/01/12 10:01:09;0.00;0.00;0.62;0.00;0.00;0.62;3.00;1.90;;;17.10;19.30;;;;;;2251564;61;20386;-55
2024/01/12 10:03:55;0.00;0.00;0.62;0.00;0.00;0.62;2.53;1.67;;;17.10;19.40;;;;;;2250993;61;20413;-63
2024/01/12 10:06:40;0.00;0.00;0.62;0.00;0.00;0.62;2.97;2.20;;;17.10;19.40;;;;;;2251904;61;20825;-56
2024/01/12 10:09:26;0.00;0.00;0.62;0.00;0.00;0.62;2.73;1.90;;;17.10;19.40;;;;;;2251056;61;20418;-54
2024/01/12 10:12:11;0.00;0.00;0.62;0.00;0.00;0.62;2.70;1.90;;;17.10;19.40;;;;;;2251296;61;20413;-57
2024/01/12 10:15:00;0.00;0.00;0.62;0.00;0.00;0.62;2.60;1.73;;;17.20;19.40;;;;;;2236508;61;1066270;-59
2024/01/12 10:17:44;0.00;0.00;0.62;0.00;0.00;0.62;2.87;1.87;;;17.20;19.40;;;;;;2251715;61;20677;-57
2024/01/12 10:20:36;0.00;0.00;0.62;0.00;0.00;0.62;2.33;1.70;;;17.20;19.40;;;;;;2252041;61;20414;-59
2024/01/12 10:23:21;0.00;0.00;0.62;0.00;0.00;0.62;2.53;2.07;;;17.20;19.40;;;;;;2251183;61;20883;-53
2024/01/12 10:26:06;0.00;0.00;0.62;0.00;0.00;0.62;2.10;1.50;;;17.20;19.40;;;;;;2251804;61;20370;-58
2024/01/12 10:28:50;0.00;0.00;0.62;0.00;0.00;0.62;2.33;1.50;;;17.10;19.40;;;;;;2255274;61;20877;-55
2024/01/12 10:31:39;0.00;0.00;0.62;0.00;0.00;0.62;2.37;1.67;;;17.10;19.40;;;;;;2252479;61;20498;-57
2024/01/12 10:34:27;0.00;0.00;0.62;0.00;0.00;0.62;2.43;1.80;;;17.20;19.50;;;;;;2253028;61;20386;-56
2024/01/12 10:37:15;0.00;0.00;0.62;0.00;0.00;0.62;3.20;2.07;;;17.20;19.40;;;;;;2252513;61;20395;-57
2024/01/12 10:40:06;0.00;0.00;0.62;0.00;0.00;0.62;2.67;1.80;;;17.20;19.40;;;;;;2252469;61;20402;-55
2024/01/12 10:42:55;0.00;0.00;0.62;0.00;0.00;0.62;2.00;1.50;;;17.20;19.50;;;;;;2252320;61;20471;-59
2024/01/12 10:45:44;0.00;0.00;0.62;0.00;0.00;0.62;2.50;1.80;;;17.20;19.50;;;;;;2252957;61;20359;-59
2024/01/12 10:48:34;0.00;0.00;0.62;0.00;0.00;0.62;2.67;1.60;;;17.20;19.50;;;;;;2252618;61;20414;-59
2024/01/12 10:51:24;0.00;0.00;0.62;0.00;0.00;0.62;2.43;1.70;;;17.20;19.50;;;;;;2252742;61;20391;-56